Terminal Aerodrome Forecast
Issued by NWS Pendleton, OR

Home | Current Version | Previous Version | Text Only | Print | Product List | Glossary On
Versions: 1 2 3 4 5 6 7 8 9 10 11 12 13
000
FTUS46 KPDT 280522
TAFPDT
TAF
KPDT 280522Z 2806/2906 16006KT P6SM SCT200
     FM281800 31008KT P6SM BKN200
     FM290000 34008KT P6SM OVC250=

USA.gov is the U.S. government's official web portal to all federal, state and local government web resources and services.